createdAt,value
2022-08-05T00:01:20.873Z,2.60
2022-08-05T00:04:55.555Z,2.62
2022-08-05T00:08:00.397Z,2.50
2022-08-05T00:11:20.358Z,2.50
2022-08-05T00:14:45.215Z,2.33
2022-08-05T00:17:53.307Z,2.78
2022-08-05T00:20:55.179Z,2.30
2022-08-05T00:27:56.176Z,2.50
2022-08-05T00:30:58.186Z,2.40
2022-08-05T00:35:05.197Z,2.35
2022-08-05T00:38:06.393Z,2.70
2022-08-05T00:41:12.955Z,2.45
2022-08-05T00:44:53.468Z,2.47
2022-08-05T00:47:57.693Z,2.20
2022-08-05T00:51:50.639Z,2.40
2022-08-05T00:54:47.445Z,2.70
2022-08-05T00:57:58.690Z,2.45
2022-08-05T01:01:00.818Z,2.40
2022-08-05T01:04:45.742Z,2.53
2022-08-05T01:08:41.080Z,2.40
2022-08-05T01:11:22.417Z,2.58
2022-08-05T01:14:50.167Z,2.62
2022-08-05T01:18:04.968Z,2.58
2022-08-05T01:21:23.193Z,2.70
2022-08-05T01:24:58.394Z,2.40
2022-08-05T01:28:15.783Z,2.95
2022-08-05T01:31:32.930Z,2.58
2022-08-05T01:35:00.774Z,3.00
2022-08-05T01:38:04.234Z,3.13
2022-08-05T01:41:09.763Z,2.70
2022-08-05T01:44:45.684Z,2.83
2022-08-05T01:47:59.059Z,2.58
2022-08-05T01:51:12.509Z,2.90
2022-08-05T01:54:52.034Z,2.80
2022-08-05T01:58:29.207Z,2.90
2022-08-05T02:01:24.532Z,2.80
2022-08-05T02:04:49.718Z,3.10
2022-08-05T02:07:56.272Z,3.00
2022-08-05T02:11:08.135Z,2.83
2022-08-05T02:14:51.088Z,3.20
2022-08-05T02:18:33.297Z,2.85
2022-08-05T02:21:30.476Z,2.78
2022-08-05T02:24:53.139Z,3.30
2022-08-05T02:27:59.482Z,2.73
2022-08-05T02:31:14.459Z,3.45
2022-08-05T02:35:13.597Z,2.92
2022-08-05T02:38:19.500Z,2.92
2022-08-05T02:41:29.003Z,3.35
2022-08-05T02:44:50.738Z,3.87
2022-08-05T02:48:07.591Z,3.58
2022-08-05T02:51:15.934Z,3.30
2022-08-05T02:54:52.122Z,3.40
2022-08-05T02:58:10.467Z,3.37
2022-08-05T03:01:23.037Z,3.30
2022-08-05T03:04:53.341Z,3.55
2022-08-05T03:08:00.647Z,3.75
2022-08-05T03:11:56.586Z,3.80
2022-08-05T03:14:45.663Z,4.12
2022-08-05T03:17:47.877Z,3.90
2022-08-05T03:20:58.242Z,3.60
2022-08-05T03:27:59.924Z,3.37
2022-08-05T03:31:03.321Z,3.25
2022-08-05T03:34:50.996Z,3.50
2022-08-05T03:37:58.098Z,3.60
2022-08-05T03:41:03.957Z,3.75
2022-08-05T03:47:47.014Z,3.83
2022-08-05T03:50:59.147Z,3.53
2022-08-05T03:58:28.837Z,3.80
2022-08-05T04:01:37.868Z,3.87
2022-08-05T04:04:49.682Z,3.58
2022-08-05T04:07:58.378Z,3.13
2022-08-05T04:11:10.114Z,3.33
2022-08-05T04:14:45.407Z,3.80
2022-08-05T04:17:56.648Z,3.60
2022-08-05T04:21:07.071Z,3.58
2022-08-05T04:27:57.404Z,3.03
2022-08-05T04:31:08.275Z,3.75
2022-08-05T04:34:47.346Z,3.45
2022-08-05T04:38:02.710Z,3.50
2022-08-05T04:41:10.924Z,3.50
2022-08-05T04:45:01.048Z,3.50
2022-08-05T04:48:18.372Z,3.35
2022-08-05T04:59:51.234Z,3.13
2022-08-05T05:03:20.390Z,3.20
2022-08-05T05:06:44.529Z,3.08
2022-08-05T05:30:04.652Z,3.45
2022-08-05T05:37:37.259Z,2.80
2022-08-05T05:40:57.557Z,3.12
2022-08-05T05:48:06.247Z,3.20
2022-08-05T05:51:15.482Z,4.30
2022-08-05T05:54:50.144Z,2.70
2022-08-05T05:57:53.874Z,3.20
2022-08-05T06:01:12.714Z,2.50
2022-08-05T06:04:52.842Z,2.90
2022-08-05T06:08:01.352Z,2.67
2022-08-05T06:11:06.530Z,3.10
2022-08-05T06:15:05.076Z,2.50
2022-08-05T06:18:39.359Z,2.60
2022-08-05T06:21:49.687Z,2.62
2022-08-05T06:31:46.868Z,2.35
2022-08-05T06:38:47.006Z,2.37
2022-08-05T06:42:10.816Z,2.20
2022-08-05T06:48:37.163Z,2.50
2022-08-05T06:50:01.148Z,2.70
2022-08-05T06:58:02.949Z,2.00
2022-08-05T07:12:12.229Z,2.08
2022-08-05T07:15:34.640Z,2.53
2022-08-05T07:27:02.810Z,2.58
2022-08-05T07:30:24.622Z,2.80
2022-08-05T07:37:37.555Z,2.62
2022-08-05T07:42:07.098Z,2.57
2022-08-05T07:45:56.497Z,2.30
2022-08-05T07:49:01.422Z,2.47
2022-08-05T07:52:14.929Z,2.85
2022-08-05T07:55:44.345Z,2.37
2022-08-05T07:59:38.981Z,2.00
2022-08-05T08:03:15.109Z,2.58
2022-08-05T08:06:42.296Z,2.30
2022-08-05T08:10:22.507Z,2.17
2022-08-05T09:05:17.835Z,2.35
2022-08-05T09:07:29.216Z,2.17
2022-08-05T09:38:12.713Z,2.65
2022-08-05T09:42:07.716Z,2.85
2022-08-05T09:46:07.311Z,2.33
2022-08-05T09:57:39.525Z,2.83
2022-08-05T10:08:55.302Z,2.30
2022-08-05T10:17:00.604Z,2.67
2022-08-05T10:25:29.622Z,2.30
2022-08-05T10:32:55.422Z,2.60
2022-08-05T10:36:19.039Z,2.70
2022-08-05T10:40:03.749Z,2.60
2022-08-05T10:47:39.604Z,2.78
2022-08-05T10:51:21.759Z,2.80
2022-08-05T10:55:05.451Z,2.70
2022-08-05T11:00:03.611Z,3.00
2022-08-05T11:02:38.282Z,2.85
2022-08-05T11:06:34.790Z,2.90
2022-08-05T11:10:04.142Z,2.77
2022-08-05T11:17:57.210Z,2.97
2022-08-05T11:21:48.785Z,3.05
2022-08-05T11:26:04.107Z,3.10
2022-08-05T11:32:40.504Z,3.40
2022-08-05T11:36:07.003Z,2.50
2022-08-05T11:39:48.191Z,2.80
2022-08-05T11:43:02.386Z,2.40
2022-08-05T11:47:09.841Z,2.83
2022-08-05T11:50:40.701Z,3.03
2022-08-05T12:02:00.828Z,2.80
2022-08-05T12:08:52.674Z,3.03
2022-08-05T12:11:55.185Z,2.53
2022-08-05T12:15:05.719Z,2.70
2022-08-05T12:18:30.914Z,2.75
2022-08-05T12:21:50.245Z,3.30
2022-08-05T12:28:39.283Z,2.85
2022-08-05T12:32:02.035Z,2.70
2022-08-05T12:35:39.495Z,2.87
2022-08-05T12:39:16.469Z,2.93
2022-08-05T12:42:53.918Z,2.67
2022-08-05T12:50:03.389Z,2.65
2022-08-05T12:57:26.427Z,2.83
2022-08-05T13:02:00.179Z,2.40
2022-08-05T13:04:54.345Z,2.58
2022-08-05T13:08:08.706Z,2.62
2022-08-05T13:12:02.375Z,5.20
2022-08-05T13:15:06.250Z,2.90
2022-08-05T13:18:41.887Z,2.55
2022-08-05T13:22:13.897Z,2.35
2022-08-05T13:25:51.629Z,2.53
2022-08-05T13:29:13.016Z,2.70
2022-08-05T13:32:51.541Z,2.77
2022-08-05T13:36:12.903Z,2.58
2022-08-05T13:40:16.617Z,2.70
2022-08-05T13:48:08.611Z,2.67
2022-08-05T13:51:41.564Z,2.53
2022-08-05T13:55:01.050Z,2.60
2022-08-05T13:58:11.131Z,2.90
2022-08-05T14:01:21.279Z,2.47
2022-08-05T14:04:51.752Z,2.58
2022-08-05T14:08:11.252Z,2.80
2022-08-05T14:11:34.238Z,2.70
2022-08-05T14:16:04.693Z,2.45
2022-08-05T14:18:45.593Z,2.50
2022-08-05T14:22:09.337Z,2.40
2022-08-05T14:25:22.156Z,2.43
2022-08-05T14:28:55.884Z,2.83
2022-08-05T14:32:14.963Z,2.40
2022-08-05T14:35:20.736Z,2.50
2022-08-05T14:38:34.067Z,2.47
2022-08-05T14:41:42.887Z,2.60
2022-08-05T14:45:03.630Z,2.50
2022-08-05T14:48:11.502Z,2.22
2022-08-05T14:51:34.412Z,2.47
2022-08-05T14:54:56.646Z,2.37
2022-08-05T14:58:14.004Z,2.50
2022-08-05T15:01:49.060Z,2.30
2022-08-05T15:04:50.836Z,2.40
2022-08-05T15:08:08.536Z,2.25
2022-08-05T15:11:17.776Z,2.90
2022-08-05T15:14:51.989Z,2.50
2022-08-05T15:17:57.499Z,2.60
2022-08-05T15:21:13.704Z,2.58
2022-08-05T15:27:57.679Z,2.10
2022-08-05T15:30:59.439Z,2.50
2022-08-05T15:38:47.291Z,2.53
2022-08-05T15:41:57.908Z,2.30
2022-08-05T15:45:15.743Z,2.30
2022-08-05T15:48:19.094Z,2.67
2022-08-05T15:52:04.462Z,2.62
2022-08-05T15:58:29.438Z,2.55
2022-08-05T16:05:36.262Z,2.67
2022-08-05T16:08:53.575Z,2.42
2022-08-05T16:12:28.214Z,2.37
2022-08-05T16:34:54.538Z,2.42
2022-08-05T16:50:11.817Z,2.20
2022-08-05T16:57:22.366Z,2.55
2022-08-05T17:00:43.701Z,2.50
2022-08-05T17:04:48.110Z,2.72
2022-08-05T17:07:54.611Z,2.67
2022-08-05T17:10:59.911Z,2.70
2022-08-05T17:14:46.072Z,2.83
2022-08-05T17:17:52.876Z,3.07
2022-08-05T17:20:56.799Z,3.00
2022-08-05T17:28:09.958Z,2.80
2022-08-05T17:31:24.802Z,2.80
2022-08-05T17:34:58.277Z,2.63
2022-08-05T17:38:26.434Z,2.72
2022-08-05T17:42:20.388Z,3.17
2022-08-05T17:44:56.008Z,3.55
2022-08-05T17:47:59.029Z,3.95
2022-08-05T17:51:09.399Z,3.47
2022-08-05T17:58:16.719Z,4.25
2022-08-05T18:01:24.276Z,4.45
2022-08-05T18:05:13.739Z,3.75
2022-08-05T18:08:33.976Z,3.87
2022-08-05T18:11:35.689Z,4.35
2022-08-05T18:22:54.389Z,3.83
2022-08-05T18:25:57.474Z,4.20
2022-08-05T18:29:01.057Z,4.80
2022-08-05T18:32:05.244Z,3.50
2022-08-05T18:35:11.538Z,3.78
2022-08-05T18:38:19.322Z,3.95
2022-08-05T18:41:54.250Z,3.80
2022-08-05T18:45:00.127Z,3.83
2022-08-05T18:48:02.164Z,4.25
2022-08-05T18:52:06.809Z,4.00
2022-08-05T18:54:50.532Z,3.70
2022-08-05T18:58:03.226Z,4.50
2022-08-05T19:01:05.871Z,4.22
2022-08-05T19:05:01.097Z,4.93
2022-08-05T19:08:13.589Z,4.30
2022-08-05T19:11:37.106Z,4.53
2022-08-05T19:15:56.905Z,4.30
2022-08-05T19:18:56.736Z,4.35
2022-08-05T19:21:59.253Z,5.07
2022-08-05T19:25:00.857Z,5.40
2022-08-05T19:28:04.562Z,5.50
2022-08-05T19:31:22.891Z,5.10
2022-08-05T19:34:54.533Z,5.10
2022-08-05T19:38:06.828Z,5.20
2022-08-05T19:41:13.575Z,5.07
2022-08-05T19:44:57.659Z,5.60
2022-08-05T19:48:03.737Z,5.23
2022-08-05T19:51:07.810Z,5.80
2022-08-05T19:54:49.768Z,6.00
2022-08-05T19:58:14.643Z,6.28
2022-08-05T20:07:59.202Z,5.53
2022-08-05T20:11:01.386Z,5.40
2022-08-05T20:14:49.647Z,5.03
2022-08-05T20:17:56.030Z,5.25
2022-08-05T20:21:00.647Z,5.43
2022-08-05T20:24:59.175Z,5.65
2022-08-05T20:28:01.137Z,5.10
2022-08-05T20:31:22.896Z,5.70
2022-08-05T20:35:02.468Z,5.55
2022-08-05T20:38:22.728Z,4.70
2022-08-05T20:41:44.176Z,5.32
2022-08-05T20:44:46.840Z,5.95
2022-08-05T20:48:08.446Z,5.20
2022-08-05T20:51:27.804Z,5.90
2022-08-05T20:55:55.269Z,5.30
2022-08-05T20:58:10.635Z,5.50
2022-08-05T21:01:17.448Z,5.57
2022-08-05T21:08:42.483Z,5.37
2022-08-05T21:12:07.703Z,4.93
2022-08-05T21:15:10.974Z,5.80
2022-08-05T21:18:12.826Z,4.87
2022-08-05T21:21:15.553Z,6.32
2022-08-05T21:24:52.802Z,5.18
2022-08-05T21:27:54.394Z,5.70
2022-08-05T21:30:57.547Z,5.18
2022-08-05T21:35:08.185Z,5.35
2022-08-05T21:38:09.738Z,5.85
2022-08-05T21:41:12.012Z,4.75
2022-08-05T21:44:50.147Z,4.97
2022-08-05T21:47:56.525Z,5.07
2022-08-05T21:50:59.406Z,4.80
2022-08-05T21:54:46.291Z,4.93
2022-08-05T21:57:55.654Z,5.10
2022-08-05T22:00:57.559Z,4.97
2022-08-05T22:04:46.086Z,5.15
2022-08-05T22:07:59.242Z,5.12
2022-08-05T22:11:06.731Z,4.95
2022-08-05T22:14:42.978Z,4.47
2022-08-05T22:17:59.798Z,4.73
2022-08-05T22:21:04.007Z,4.82
2022-08-05T22:24:52.181Z,4.78
2022-08-05T22:28:08.794Z,4.53
2022-08-05T22:31:13.228Z,4.72
2022-08-05T22:34:47.229Z,4.50
2022-08-05T22:37:58.659Z,4.45
2022-08-05T22:41:01.426Z,5.20
2022-08-05T22:44:48.356Z,4.65
2022-08-05T22:47:57.544Z,5.12
2022-08-05T22:50:59.318Z,5.10
2022-08-05T22:54:48.828Z,5.00
2022-08-05T22:57:53.823Z,4.87
2022-08-05T23:00:59.657Z,5.78
2022-08-05T23:07:55.709Z,4.97
2022-08-05T23:10:57.213Z,4.57
2022-08-05T23:14:47.353Z,5.18
2022-08-05T23:18:00.710Z,4.78
2022-08-05T23:21:06.857Z,4.80
2022-08-05T23:28:00.583Z,4.85
2022-08-05T23:31:17.251Z,5.00
2022-08-05T23:35:01.443Z,4.80
2022-08-05T23:38:04.797Z,5.32
2022-08-05T23:41:13.813Z,4.90
2022-08-05T23:47:59.566Z,5.15
2022-08-05T23:51:06.147Z,5.28
2022-08-05T23:54:47.579Z,4.70
2022-08-05T23:57:51.379Z,5.27
